Impacts METAR Board INFO
IDs:

KSTL - St Louis/Lambert Int, MO, US

Updated at: 0633 UTC 12 Dec 2017
Potential Impact None Slight Moderate High
Time11/18Z 11/19Z 11/20Z 11/21Z 11/22Z 11/23Z 12/00Z 12/01Z 12/02Z 12/03Z 12/04Z 12/05Z 12/06Z
VIS10 10 10 10 10 10 10 10 10 10 10 10 10
CIG250 200 -- -- 65 60 55 55 41 35 31 24 25
CoverBKNBKNSCTFEWBKNBKNOVCOVCOVCOVCOVCOVCOVC
FltCatVFRVFRVFRVFRVFRVFRVFRVFRVFRVFRVFRMVFRMVFR
WX--------------------------
WDir260270270290300300300290300310310330320
WSpd17 20 19 23 20 19 16 14 13 18 22 19 22
WGst24 26 26 33 30 32 36 25 23 27 30 30 30
Raw hourly METARs
KSTL 111751Z 26017G24KT 10SM FEW150 BKN250 14/M05 A2978 RMK AO2 SLP089 T01391050 10144 20006 56040
KSTL 111851Z 27020G26KT 10SM SCT150 BKN200 13/M06 A2977 RMK AO2 PK WND 27028/1834 SLP086 T01331061
KSTL 111951Z 27019G26KT 10SM SCT200 13/M06 A2977 RMK AO2 PK WND 28032/1856 SLP085 T01331056
KSTL 112051Z 29023G33KT 10SM FEW055 FEW250 12/M03 A2979 RMK AO2 PK WND 27038/2017 SLP092 T01221033 53002
KSTL 112151Z 30020G30KT 10SM BKN065 BKN250 11/M02 A2983 RMK AO2 PK WND 29034/2135 SLP107 T01111022
KSTL 112251Z 30019G32KT 10SM BKN060 11/M02 A2986 RMK AO2 PK WND 28035/2223 SLP116 T01061017
KSTL 112351Z 30016G36KT 10SM BKN055 OVC100 09/M01 A2989 RMK AO2 PK WND 31036/2342 SLP127 T00941006 10144 20094 51034
KSTL 120051Z 29014G25KT 10SM SCT044 OVC055 09/00 A2991 RMK AO2 PK WND 28032/0032 SLP135 T00890000
KSTL 120151Z 30013G23KT 10SM BKN041 OVC055 08/01 A2994 RMK AO2 PK WND 31026/0059 SLP143 T00830006
KSTL 120251Z 31018G27KT 10SM OVC035 08/01 A2997 RMK AO2 PK WND 32027/0251 SLP151 T00780011 53026
KSTL 120351Z 31022G30KT 10SM OVC031 07/01 A2999 RMK AO2 PK WND 31030/0351 SLP157 T00720011
KSTL 120451Z 33019G30KT 10SM OVC024 06/01 A3002 RMK AO2 PK WND 33031/0441 SLP169 T00560011
KSTL 120551Z 32022G30KT 10SM OVC025 05/01 A3004 RMK AO2 PK WND 32030/0549 SLP175 T00500006 10094 20050 401441017 51025